sensor_id;sensor_type;location;lat;lon;timestamp;P1;durP1;ratioP1;P2;durP2;ratioP2
3573;SDS011;1801;51.050;6.246;2023-06-10T00:01:23;15.70;;;12.30;;
3573;SDS011;1801;51.050;6.246;2023-06-10T00:03:49;15.87;;;10.47;;
3573;SDS011;1801;51.050;6.246;2023-06-10T00:06:14;20.60;;;10.83;;
3573;SDS011;1801;51.050;6.246;2023-06-10T00:08:39;15.43;;;11.20;;
3573;SDS011;1801;51.050;6.246;2023-06-10T00:11:06;12.93;;;11.53;;
3573;SDS011;1801;51.050;6.246;2023-06-10T00:13:31;18.43;;;11.40;;
3573;SDS011;1801;51.050;6.246;2023-06-10T00:15:56;18.00;;;11.20;;
3573;SDS011;1801;51.050;6.246;2023-06-10T00:18:21;17.07;;;11.50;;
3573;SDS011;1801;51.050;6.246;2023-06-10T00:20:47;13.60;;;11.03;;
3573;SDS011;1801;51.050;6.246;2023-06-10T00:23:13;16.47;;;11.23;;
3573;SDS011;1801;51.050;6.246;2023-06-10T00:25:39;18.53;;;12.43;;
3573;SDS011;1801;51.050;6.246;2023-06-10T00:28:04;20.13;;;11.93;;
3573;SDS011;1801;51.050;6.246;2023-06-10T00:30:30;18.77;;;12.23;;
3573;SDS011;1801;51.050;6.246;2023-06-10T00:32:55;16.53;;;11.70;;
3573;SDS011;1801;51.050;6.246;2023-06-10T00:35:20;15.83;;;12.03;;
3573;SDS011;1801;51.050;6.246;2023-06-10T00:37:46;18.80;;;12.53;;
3573;SDS011;1801;51.050;6.246;2023-06-10T00:40:11;19.17;;;12.07;;
3573;SDS011;1801;51.050;6.246;2023-06-10T00:42:36;16.00;;;11.00;;
3573;SDS011;1801;51.050;6.246;2023-06-10T00:45:02;17.33;;;11.40;;
3573;SDS011;1801;51.050;6.246;2023-06-10T00:47:27;15.50;;;12.20;;
3573;SDS011;1801;51.050;6.246;2023-06-10T00:49:52;16.37;;;11.90;;
3573;SDS011;1801;51.050;6.246;2023-06-10T00:52:18;18.67;;;13.03;;
3573;SDS011;1801;51.050;6.246;2023-06-10T00:54:45;18.70;;;11.43;;
3573;SDS011;1801;51.050;6.246;2023-06-10T00:57:10;15.53;;;12.37;;
3573;SDS011;1801;51.050;6.246;2023-06-10T00:59:36;23.23;;;12.87;;
3573;SDS011;1801;51.050;6.246;2023-06-10T01:02:01;22.40;;;12.67;;
3573;SDS011;1801;51.050;6.246;2023-06-10T01:04:27;15.50;;;11.30;;
3573;SDS011;1801;51.050;6.246;2023-06-10T01:11:54;25.30;;;12.30;;
3573;SDS011;1801;51.050;6.246;2023-06-10T01:14:22;14.80;;;11.67;;
3573;SDS011;1801;51.050;6.246;2023-06-10T01:16:51;18.93;;;12.20;;
3573;SDS011;1801;51.050;6.246;2023-06-10T01:19:17;16.97;;;12.37;;
3573;SDS011;1801;51.050;6.246;2023-06-10T01:21:42;14.83;;;11.63;;
3573;SDS011;1801;51.050;6.246;2023-06-10T01:24:13;16.63;;;11.90;;
3573;SDS011;1801;51.050;6.246;2023-06-10T01:26:38;14.30;;;11.70;;
3573;SDS011;1801;51.050;6.246;2023-06-10T01:29:07;24.20;;;12.27;;
3573;SDS011;1801;51.050;6.246;2023-06-10T01:31:41;27.13;;;13.83;;
3573;SDS011;1801;51.050;6.246;2023-06-10T01:34:09;21.23;;;14.17;;
3573;SDS011;1801;51.050;6.246;2023-06-10T01:36:35;21.73;;;13.00;;
3573;SDS011;1801;51.050;6.246;2023-06-10T01:39:01;19.10;;;12.67;;
3573;SDS011;1801;51.050;6.246;2023-06-10T01:41:27;19.40;;;12.70;;
3573;SDS011;1801;51.050;6.246;2023-06-10T01:43:54;20.37;;;14.50;;
3573;SDS011;1801;51.050;6.246;2023-06-10T01:46:19;19.10;;;13.70;;
3573;SDS011;1801;51.050;6.246;2023-06-10T01:48:46;22.60;;;13.30;;
3573;SDS011;1801;51.050;6.246;2023-06-10T01:51:11;23.00;;;12.83;;
3573;SDS011;1801;51.050;6.246;2023-06-10T01:53:36;23.67;;;13.40;;
3573;SDS011;1801;51.050;6.246;2023-06-10T01:56:01;17.53;;;12.80;;
3573;SDS011;1801;51.050;6.246;2023-06-10T01:58:26;18.73;;;13.53;;
3573;SDS011;1801;51.050;6.246;2023-06-10T02:00:52;16.70;;;13.10;;
3573;SDS011;1801;51.050;6.246;2023-06-10T02:03:17;21.23;;;13.80;;
3573;SDS011;1801;51.050;6.246;2023-06-10T02:05:43;22.63;;;13.87;;
3573;SDS011;1801;51.050;6.246;2023-06-10T02:08:08;19.50;;;13.20;;
3573;SDS011;1801;51.050;6.246;2023-06-10T02:10:33;15.07;;;12.23;;
3573;SDS011;1801;51.050;6.246;2023-06-10T02:12:59;22.10;;;13.90;;
3573;SDS011;1801;51.050;6.246;2023-06-10T02:15:24;22.70;;;12.77;;
3573;SDS011;1801;51.050;6.246;2023-06-10T02:17:49;18.23;;;12.50;;
3573;SDS011;1801;51.050;6.246;2023-06-10T02:20:15;17.30;;;12.90;;
3573;SDS011;1801;51.050;6.246;2023-06-10T02:22:41;24.83;;;13.67;;
3573;SDS011;1801;51.050;6.246;2023-06-10T02:25:06;20.50;;;12.33;;
3573;SDS011;1801;51.050;6.246;2023-06-10T02:27:31;25.50;;;13.90;;
3573;SDS011;1801;51.050;6.246;2023-06-10T02:29:57;20.47;;;14.67;;
3573;SDS011;1801;51.050;6.246;2023-06-10T02:32:22;22.73;;;14.80;;
3573;SDS011;1801;51.050;6.246;2023-06-10T02:34:47;15.50;;;12.30;;
3573;SDS011;1801;51.050;6.246;2023-06-10T02:37:14;17.90;;;12.87;;
3573;SDS011;1801;51.050;6.246;2023-06-10T02:39:39;17.20;;;12.90;;
3573;SDS011;1801;51.050;6.246;2023-06-10T02:42:05;21.83;;;14.13;;
3573;SDS011;1801;51.050;6.246;2023-06-10T02:44:30;19.03;;;13.90;;
3573;SDS011;1801;51.050;6.246;2023-06-10T02:46:55;21.93;;;15.17;;
3573;SDS011;1801;51.050;6.246;2023-06-10T02:49:20;18.87;;;13.83;;
3573;SDS011;1801;51.050;6.246;2023-06-10T02:51:46;22.17;;;14.30;;
3573;SDS011;1801;51.050;6.246;2023-06-10T02:54:11;18.33;;;13.47;;
3573;SDS011;1801;51.050;6.246;2023-06-10T02:56:36;19.10;;;13.80;;
3573;SDS011;1801;51.050;6.246;2023-06-10T02:59:02;20.07;;;14.33;;
3573;SDS011;1801;51.050;6.246;2023-06-10T03:01:27;20.40;;;13.80;;
3573;SDS011;1801;51.050;6.246;2023-06-10T03:03:52;18.47;;;14.20;;
3573;SDS011;1801;51.050;6.246;2023-06-10T03:06:18;17.23;;;13.30;;
3573;SDS011;1801;51.050;6.246;2023-06-10T03:08:43;19.77;;;15.40;;
3573;SDS011;1801;51.050;6.246;2023-06-10T03:11:08;26.37;;;15.90;;
3573;SDS011;1801;51.050;6.246;2023-06-10T03:13:33;23.33;;;14.60;;
3573;SDS011;1801;51.050;6.246;2023-06-10T03:15:59;21.00;;;14.20;;
3573;SDS011;1801;51.050;6.246;2023-06-10T03:18:26;18.70;;;14.00;;
3573;SDS011;1801;51.050;6.246;2023-06-10T03:20:51;23.10;;;13.90;;
3573;SDS011;1801;51.050;6.246;2023-06-10T03:23:16;21.80;;;14.13;;
3573;SDS011;1801;51.050;6.246;2023-06-10T03:25:42;22.13;;;14.53;;
3573;SDS011;1801;51.050;6.246;2023-06-10T03:28:09;27.40;;;14.30;;
3573;SDS011;1801;51.050;6.246;2023-06-10T03:30:34;20.00;;;13.53;;
3573;SDS011;1801;51.050;6.246;2023-06-10T03:32:59;16.43;;;12.20;;
3573;SDS011;1801;51.050;6.246;2023-06-10T03:35:25;18.20;;;14.07;;
3573;SDS011;1801;51.050;6.246;2023-06-10T03:37:50;18.37;;;13.70;;
3573;SDS011;1801;51.050;6.246;2023-06-10T03:40:16;20.03;;;13.20;;
3573;SDS011;1801;51.050;6.246;2023-06-10T03:42:41;24.43;;;14.13;;
3573;SDS011;1801;51.050;6.246;2023-06-10T03:45:06;17.80;;;13.57;;
3573;SDS011;1801;51.050;6.246;2023-06-10T03:47:34;20.30;;;14.07;;
3573;SDS011;1801;51.050;6.246;2023-06-10T03:50:01;22.20;;;14.20;;
3573;SDS011;1801;51.050;6.246;2023-06-10T03:52:26;18.33;;;13.73;;
3573;SDS011;1801;51.050;6.246;2023-06-10T03:54:51;21.17;;;14.87;;
3573;SDS011;1801;51.050;6.246;2023-06-10T03:57:16;24.70;;;13.20;;
3573;SDS011;1801;51.050;6.246;2023-06-10T03:59:41;17.80;;;13.33;;
3573;SDS011;1801;51.050;6.246;2023-06-10T04:02:06;19.53;;;13.60;;
3573;SDS011;1801;51.050;6.246;2023-06-10T04:04:33;20.40;;;13.40;;
3573;SDS011;1801;51.050;6.246;2023-06-10T04:06:58;15.43;;;12.40;;
3573;SDS011;1801;51.050;6.246;2023-06-10T04:09:24;17.70;;;13.63;;
3573;SDS011;1801;51.050;6.246;2023-06-10T04:11:49;17.67;;;13.20;;
3573;SDS011;1801;51.050;6.246;2023-06-10T04:14:14;19.20;;;14.13;;
3573;SDS011;1801;51.050;6.246;2023-06-10T04:16:40;19.33;;;13.40;;
3573;SDS011;1801;51.050;6.246;2023-06-10T04:19:06;23.70;;;14.07;;
3573;SDS011;1801;51.050;6.246;2023-06-10T04:21:31;20.27;;;14.30;;
3573;SDS011;1801;51.050;6.246;2023-06-10T04:23:57;19.80;;;12.80;;
3573;SDS011;1801;51.050;6.246;2023-06-10T04:26:23;17.70;;;13.23;;
3573;SDS011;1801;51.050;6.246;2023-06-10T04:28:48;19.20;;;13.60;;
3573;SDS011;1801;51.050;6.246;2023-06-10T04:31:13;18.87;;;13.50;;
3573;SDS011;1801;51.050;6.246;2023-06-10T04:33:38;17.57;;;13.07;;
3573;SDS011;1801;51.050;6.246;2023-06-10T04:36:04;23.50;;;14.67;;
3573;SDS011;1801;51.050;6.246;2023-06-10T04:38:31;18.63;;;12.93;;
3573;SDS011;1801;51.050;6.246;2023-06-10T04:40:56;17.40;;;12.80;;
3573;SDS011;1801;51.050;6.246;2023-06-10T04:43:22;19.90;;;13.90;;
3573;SDS011;1801;51.050;6.246;2023-06-10T04:45:47;20.20;;;13.90;;
3573;SDS011;1801;51.050;6.246;2023-06-10T04:48:12;20.80;;;14.80;;
3573;SDS011;1801;51.050;6.246;2023-06-10T04:50:38;17.13;;;13.00;;
3573;SDS011;1801;51.050;6.246;2023-06-10T04:53:03;16.77;;;13.23;;
3573;SDS011;1801;51.050;6.246;2023-06-10T04:55:29;15.60;;;11.70;;
3573;SDS011;1801;51.050;6.246;2023-06-10T04:57:54;21.40;;;13.57;;
3573;SDS011;1801;51.050;6.246;2023-06-10T05:00:19;20.47;;;12.40;;
3573;SDS011;1801;51.050;6.246;2023-06-10T05:02:45;19.67;;;13.40;;
3573;SDS011;1801;51.050;6.246;2023-06-10T05:05:14;19.17;;;12.67;;
3573;SDS011;1801;51.050;6.246;2023-06-10T05:07:39;17.40;;;12.50;;
3573;SDS011;1801;51.050;6.246;2023-06-10T05:10:04;17.40;;;12.20;;
3573;SDS011;1801;51.050;6.246;2023-06-10T05:12:30;18.17;;;13.60;;
3573;SDS011;1801;51.050;6.246;2023-06-10T05:14:55;19.93;;;13.57;;
3573;SDS011;1801;51.050;6.246;2023-06-10T05:17:21;19.23;;;13.03;;
3573;SDS011;1801;51.050;6.246;2023-06-10T05:19:46;20.03;;;13.47;;
3573;SDS011;1801;51.050;6.246;2023-06-10T05:22:12;23.60;;;12.83;;
3573;SDS011;1801;51.050;6.246;2023-06-10T05:24:38;20.43;;;13.33;;
3573;SDS011;1801;51.050;6.246;2023-06-10T05:27:04;21.93;;;13.23;;
3573;SDS011;1801;51.050;6.246;2023-06-10T05:29:29;18.13;;;12.80;;
3573;SDS011;1801;51.050;6.246;2023-06-10T05:31:54;19.93;;;12.60;;
3573;SDS011;1801;51.050;6.246;2023-06-10T05:34:22;20.43;;;12.70;;
3573;SDS011;1801;51.050;6.246;2023-06-10T05:36:47;17.53;;;12.50;;
3573;SDS011;1801;51.050;6.246;2023-06-10T05:39:13;18.53;;;12.50;;
3573;SDS011;1801;51.050;6.246;2023-06-10T05:41:38;17.00;;;11.70;;
3573;SDS011;1801;51.050;6.246;2023-06-10T05:44:03;17.20;;;12.63;;
3573;SDS011;1801;51.050;6.246;2023-06-10T05:46:29;15.00;;;11.33;;
3573;SDS011;1801;51.050;6.246;2023-06-10T05:48:54;16.90;;;12.20;;
3573;SDS011;1801;51.050;6.246;2023-06-10T05:51:19;19.20;;;12.50;;
3573;SDS011;1801;51.050;6.246;2023-06-10T05:53:45;14.77;;;12.30;;
3573;SDS011;1801;51.050;6.246;2023-06-10T05:56:11;17.70;;;12.00;;
3573;SDS011;1801;51.050;6.246;2023-06-10T05:58:36;13.83;;;11.17;;
3573;SDS011;1801;51.050;6.246;2023-06-10T06:01:01;18.20;;;12.10;;
3573;SDS011;1801;51.050;6.246;2023-06-10T06:03:27;18.30;;;11.03;;
3573;SDS011;1801;51.050;6.246;2023-06-10T06:05:53;17.40;;;11.27;;
3573;SDS011;1801;51.050;6.246;2023-06-10T06:08:18;18.67;;;11.43;;
3573;SDS011;1801;51.050;6.246;2023-06-10T06:10:44;19.03;;;11.87;;
3573;SDS011;1801;51.050;6.246;2023-06-10T06:13:09;16.50;;;11.00;;
3573;SDS011;1801;51.050;6.246;2023-06-10T06:15:35;26.23;;;12.33;;
3573;SDS011;1801;51.050;6.246;2023-06-10T06:18:00;14.87;;;11.90;;
3573;SDS011;1801;51.050;6.246;2023-06-10T06:20:25;16.50;;;11.33;;
3573;SDS011;1801;51.050;6.246;2023-06-10T06:22:50;23.63;;;12.00;;
3573;SDS011;1801;51.050;6.246;2023-06-10T06:25:15;19.63;;;11.50;;
3573;SDS011;1801;51.050;6.246;2023-06-10T06:27:41;27.33;;;11.00;;
3573;SDS011;1801;51.050;6.246;2023-06-10T06:30:06;17.83;;;11.03;;
3573;SDS011;1801;51.050;6.246;2023-06-10T06:32:32;11.87;;;9.97;;
3573;SDS011;1801;51.050;6.246;2023-06-10T06:34:57;15.30;;;9.30;;
3573;SDS011;1801;51.050;6.246;2023-06-10T06:37:25;17.73;;;10.00;;
3573;SDS011;1801;51.050;6.246;2023-06-10T06:39:51;15.10;;;9.80;;
3573;SDS011;1801;51.050;6.246;2023-06-10T06:42:16;17.53;;;10.70;;
3573;SDS011;1801;51.050;6.246;2023-06-10T06:44:42;11.13;;;9.80;;
3573;SDS011;1801;51.050;6.246;2023-06-10T06:47:07;21.43;;;10.70;;
3573;SDS011;1801;51.050;6.246;2023-06-10T06:49:32;13.87;;;9.57;;
3573;SDS011;1801;51.050;6.246;2023-06-10T06:51:57;16.60;;;10.90;;
3573;SDS011;1801;51.050;6.246;2023-06-10T06:54:22;16.23;;;9.60;;
3573;SDS011;1801;51.050;6.246;2023-06-10T06:56:48;10.97;;;9.03;;
3573;SDS011;1801;51.050;6.246;2023-06-10T06:59:13;14.80;;;10.23;;
3573;SDS011;1801;51.050;6.246;2023-06-10T07:01:39;19.17;;;10.90;;
3573;SDS011;1801;51.050;6.246;2023-06-10T07:04:04;14.90;;;10.40;;
3573;SDS011;1801;51.050;6.246;2023-06-10T07:06:29;21.70;;;11.07;;
3573;SDS011;1801;51.050;6.246;2023-06-10T07:08:55;20.47;;;11.27;;
3573;SDS011;1801;51.050;6.246;2023-06-10T07:11:20;15.60;;;11.60;;
3573;SDS011;1801;51.050;6.246;2023-06-10T07:13:46;18.00;;;9.73;;
3573;SDS011;1801;51.050;6.246;2023-06-10T07:16:12;21.40;;;10.20;;
3573;SDS011;1801;51.050;6.246;2023-06-10T07:18:37;21.23;;;10.40;;
3573;SDS011;1801;51.050;6.246;2023-06-10T07:21:02;14.93;;;10.10;;
3573;SDS011;1801;51.050;6.246;2023-06-10T07:23:29;21.30;;;9.50;;
3573;SDS011;1801;51.050;6.246;2023-06-10T07:25:55;19.47;;;10.87;;
3573;SDS011;1801;51.050;6.246;2023-06-10T07:28:20;16.17;;;10.83;;
3573;SDS011;1801;51.050;6.246;2023-06-10T07:30:45;17.87;;;11.37;;
3573;SDS011;1801;51.050;6.246;2023-06-10T07:33:10;19.57;;;10.47;;
3573;SDS011;1801;51.050;6.246;2023-06-10T07:35:36;20.10;;;13.73;;
3573;SDS011;1801;51.050;6.246;2023-06-10T07:38:01;17.07;;;10.73;;
3573;SDS011;1801;51.050;6.246;2023-06-10T07:40:26;23.53;;;11.33;;
3573;SDS011;1801;51.050;6.246;2023-06-10T07:42:51;23.53;;;11.23;;
3573;SDS011;1801;51.050;6.246;2023-06-10T07:45:17;19.73;;;10.93;;
3573;SDS011;1801;51.050;6.246;2023-06-10T07:47:43;19.03;;;11.80;;
3573;SDS011;1801;51.050;6.246;2023-06-10T07:50:08;20.03;;;11.10;;
3573;SDS011;1801;51.050;6.246;2023-06-10T07:52:33;15.73;;;11.03;;
3573;SDS011;1801;51.050;6.246;2023-06-10T07:54:59;16.90;;;12.40;;
3573;SDS011;1801;51.050;6.246;2023-06-10T07:57:24;17.00;;;12.17;;
3573;SDS011;1801;51.050;6.246;2023-06-10T07:59:49;15.43;;;11.80;;
3573;SDS011;1801;51.050;6.246;2023-06-10T08:02:15;16.40;;;11.10;;
3573;SDS011;1801;51.050;6.246;2023-06-10T08:04:40;18.23;;;11.37;;
3573;SDS011;1801;51.050;6.246;2023-06-10T08:07:05;25.60;;;11.53;;
3573;SDS011;1801;51.050;6.246;2023-06-10T08:09:30;15.57;;;9.10;;
3573;SDS011;1801;51.050;6.246;2023-06-10T08:11:55;17.07;;;10.07;;
3573;SDS011;1801;51.050;6.246;2023-06-10T08:14:21;14.50;;;9.80;;
3573;SDS011;1801;51.050;6.246;2023-06-10T08:16:46;28.40;;;11.23;;
3573;SDS011;1801;51.050;6.246;2023-06-10T08:19:11;16.20;;;9.70;;
3573;SDS011;1801;51.050;6.246;2023-06-10T08:21:36;20.17;;;10.37;;
3573;SDS011;1801;51.050;6.246;2023-06-10T08:24:02;16.47;;;9.27;;
3573;SDS011;1801;51.050;6.246;2023-06-10T08:26:27;16.60;;;9.77;;
3573;SDS011;1801;51.050;6.246;2023-06-10T08:28:52;15.07;;;10.17;;
3573;SDS011;1801;51.050;6.246;2023-06-10T08:31:19;16.87;;;9.80;;
3573;SDS011;1801;51.050;6.246;2023-06-10T08:33:44;14.57;;;10.47;;
3573;SDS011;1801;51.050;6.246;2023-06-10T08:36:09;12.80;;;9.93;;
3573;SDS011;1801;51.050;6.246;2023-06-10T08:38:35;15.80;;;9.83;;
3573;SDS011;1801;51.050;6.246;2023-06-10T08:41:00;18.97;;;10.87;;
3573;SDS011;1801;51.050;6.246;2023-06-10T08:43:31;21.87;;;10.60;;
3573;SDS011;1801;51.050;6.246;2023-06-10T08:45:58;19.70;;;10.40;;
3573;SDS011;1801;51.050;6.246;2023-06-10T08:48:24;12.10;;;9.77;;
3573;SDS011;1801;51.050;6.246;2023-06-10T08:50:52;19.73;;;10.47;;
3573;SDS011;1801;51.050;6.246;2023-06-10T08:53:18;15.07;;;10.50;;
3573;SDS011;1801;51.050;6.246;2023-06-10T08:55:43;14.97;;;10.30;;
3573;SDS011;1801;51.050;6.246;2023-06-10T08:58:09;20.90;;;10.27;;
3573;SDS011;1801;51.050;6.246;2023-06-10T09:00:35;15.37;;;11.00;;
3573;SDS011;1801;51.050;6.246;2023-06-10T09:03:02;13.63;;;8.83;;
3573;SDS011;1801;51.050;6.246;2023-06-10T09:05:28;14.53;;;9.40;;
3573;SDS011;1801;51.050;6.246;2023-06-10T09:07:53;18.20;;;11.57;;
3573;SDS011;1801;51.050;6.246;2023-06-10T09:10:20;15.70;;;11.03;;
3573;SDS011;1801;51.050;6.246;2023-06-10T09:12:46;13.70;;;9.83;;
3573;SDS011;1801;51.050;6.246;2023-06-10T09:15:11;15.03;;;10.53;;
3573;SDS011;1801;51.050;6.246;2023-06-10T09:17:42;14.50;;;10.33;;
3573;SDS011;1801;51.050;6.246;2023-06-10T09:20:07;12.40;;;9.43;;
3573;SDS011;1801;51.050;6.246;2023-06-10T09:22:33;14.20;;;10.53;;
3573;SDS011;1801;51.050;6.246;2023-06-10T09:25:16;18.90;;;11.43;;
3573;SDS011;1801;51.050;6.246;2023-06-10T09:30:23;14.40;;;10.40;;
3573;SDS011;1801;51.050;6.246;2023-06-10T09:32:50;16.07;;;10.30;;
3573;SDS011;1801;51.050;6.246;2023-06-10T09:35:15;13.20;;;11.80;;
3573;SDS011;1801;51.050;6.246;2023-06-10T09:37:40;16.07;;;10.40;;
3573;SDS011;1801;51.050;6.246;2023-06-10T09:40:08;15.20;;;11.07;;
3573;SDS011;1801;51.050;6.246;2023-06-10T09:42:35;19.00;;;10.80;;
3573;SDS011;1801;51.050;6.246;2023-06-10T09:45:01;15.97;;;11.67;;
3573;SDS011;1801;51.050;6.246;2023-06-10T09:47:27;16.70;;;11.67;;
3573;SDS011;1801;51.050;6.246;2023-06-10T09:49:52;12.40;;;10.70;;
3573;SDS011;1801;51.050;6.246;2023-06-10T09:52:25;18.63;;;11.07;;
3573;SDS011;1801;51.050;6.246;2023-06-10T09:54:51;14.27;;;12.43;;
3573;SDS011;1801;51.050;6.246;2023-06-10T09:57:17;16.10;;;11.33;;
3573;SDS011;1801;51.050;6.246;2023-06-10T09:59:42;16.83;;;11.90;;
3573;SDS011;1801;51.050;6.246;2023-06-10T10:02:13;14.07;;;10.87;;
3573;SDS011;1801;51.050;6.246;2023-06-10T10:04:38;15.20;;;11.80;;
3573;SDS011;1801;51.050;6.246;2023-06-10T10:07:03;19.37;;;10.70;;
3573;SDS011;1801;51.050;6.246;2023-06-10T10:09:29;15.53;;;10.93;;
3573;SDS011;1801;51.050;6.246;2023-06-10T10:11:54;14.67;;;12.17;;
3573;SDS011;1801;51.050;6.246;2023-06-10T10:14:20;15.67;;;12.47;;
3573;SDS011;1801;51.050;6.246;2023-06-10T10:16:45;15.53;;;12.10;;
3573;SDS011;1801;51.050;6.246;2023-06-10T10:19:12;13.07;;;11.70;;
3573;SDS011;1801;51.050;6.246;2023-06-10T10:21:41;15.63;;;11.17;;
3573;SDS011;1801;51.050;6.246;2023-06-10T10:26:33;12.70;;;10.50;;
3573;SDS011;1801;51.050;6.246;2023-06-10T10:29:10;17.10;;;11.70;;
3573;SDS011;1801;51.050;6.246;2023-06-10T10:31:36;18.77;;;11.37;;
3573;SDS011;1801;51.050;6.246;2023-06-10T10:34:04;14.80;;;11.77;;
3573;SDS011;1801;51.050;6.246;2023-06-10T10:36:31;16.33;;;12.53;;
3573;SDS011;1801;51.050;6.246;2023-06-10T10:38:56;16.10;;;12.03;;
3573;SDS011;1801;51.050;6.246;2023-06-10T10:41:23;15.33;;;11.43;;
3573;SDS011;1801;51.050;6.246;2023-06-10T10:43:51;19.83;;;11.23;;
3573;SDS011;1801;51.050;6.246;2023-06-10T10:46:16;17.23;;;12.10;;
3573;SDS011;1801;51.050;6.246;2023-06-10T10:48:42;15.77;;;11.30;;
3573;SDS011;1801;51.050;6.246;2023-06-10T10:51:08;17.57;;;11.40;;
3573;SDS011;1801;51.050;6.246;2023-06-10T10:53:33;16.17;;;11.60;;
3573;SDS011;1801;51.050;6.246;2023-06-10T10:55:59;13.10;;;11.67;;
3573;SDS011;1801;51.050;6.246;2023-06-10T10:58:25;23.30;;;12.10;;
3573;SDS011;1801;51.050;6.246;2023-06-10T11:00:50;15.27;;;11.53;;
3573;SDS011;1801;51.050;6.246;2023-06-10T11:03:16;18.77;;;12.50;;
3573;SDS011;1801;51.050;6.246;2023-06-10T11:05:45;13.77;;;11.80;;
3573;SDS011;1801;51.050;6.246;2023-06-10T11:08:13;13.23;;;11.80;;
3573;SDS011;1801;51.050;6.246;2023-06-10T11:10:39;13.33;;;11.80;;
3573;SDS011;1801;51.050;6.246;2023-06-10T11:13:14;12.63;;;11.07;;
3573;SDS011;1801;51.050;6.246;2023-06-10T11:15:43;18.07;;;12.30;;
3573;SDS011;1801;51.050;6.246;2023-06-10T11:18:11;13.33;;;11.93;;
3573;SDS011;1801;51.050;6.246;2023-06-10T11:25:57;15.07;;;10.63;;
3573;SDS011;1801;51.050;6.246;2023-06-10T11:28:33;13.70;;;11.43;;
3573;SDS011;1801;51.050;6.246;2023-06-10T11:30:59;18.57;;;11.60;;
3573;SDS011;1801;51.050;6.246;2023-06-10T11:33:24;15.70;;;11.17;;
3573;SDS011;1801;51.050;6.246;2023-06-10T11:35:49;13.07;;;11.57;;
3573;SDS011;1801;51.050;6.246;2023-06-10T11:38:15;16.90;;;11.10;;
3573;SDS011;1801;51.050;6.246;2023-06-10T11:40:40;12.53;;;11.07;;
3573;SDS011;1801;51.050;6.246;2023-06-10T11:43:05;12.70;;;11.50;;
3573;SDS011;1801;51.050;6.246;2023-06-10T11:45:30;13.27;;;11.70;;
3573;SDS011;1801;51.050;6.246;2023-06-10T11:47:56;15.17;;;10.83;;
3573;SDS011;1801;51.050;6.246;2023-06-10T11:50:31;13.63;;;10.67;;
3573;SDS011;1801;51.050;6.246;2023-06-10T11:52:57;12.27;;;9.73;;
3573;SDS011;1801;51.050;6.246;2023-06-10T11:55:23;12.50;;;10.40;;
3573;SDS011;1801;51.050;6.246;2023-06-10T11:57:48;13.47;;;11.47;;
3573;SDS011;1801;51.050;6.246;2023-06-10T12:00:17;19.77;;;11.83;;
3573;SDS011;1801;51.050;6.246;2023-06-10T12:02:42;18.60;;;11.40;;
3573;SDS011;1801;51.050;6.246;2023-06-10T12:05:14;11.70;;;10.50;;
3573;SDS011;1801;51.050;6.246;2023-06-10T12:07:39;14.30;;;10.93;;
3573;SDS011;1801;51.050;6.246;2023-06-10T12:10:05;12.07;;;10.87;;
3573;SDS011;1801;51.050;6.246;2023-06-10T12:12:30;13.90;;;11.30;;
3573;SDS011;1801;51.050;6.246;2023-06-10T12:14:56;13.63;;;11.17;;
3573;SDS011;1801;51.050;6.246;2023-06-10T12:17:22;15.17;;;11.93;;
3573;SDS011;1801;51.050;6.246;2023-06-10T12:19:48;14.60;;;12.33;;
3573;SDS011;1801;51.050;6.246;2023-06-10T12:22:13;15.23;;;11.70;;
3573;SDS011;1801;51.050;6.246;2023-06-10T12:24:45;12.23;;;11.13;;
3573;SDS011;1801;51.050;6.246;2023-06-10T12:27:13;13.87;;;12.10;;
3573;SDS011;1801;51.050;6.246;2023-06-10T12:29:38;17.73;;;11.30;;
3573;SDS011;1801;51.050;6.246;2023-06-10T12:32:04;13.90;;;12.20;;
3573;SDS011;1801;51.050;6.246;2023-06-10T12:34:33;12.60;;;11.30;;
3573;SDS011;1801;51.050;6.246;2023-06-10T12:36:59;18.73;;;12.00;;
3573;SDS011;1801;51.050;6.246;2023-06-10T12:39:25;13.87;;;11.07;;
3573;SDS011;1801;51.050;6.246;2023-06-10T12:41:53;14.00;;;11.03;;
3573;SDS011;1801;51.050;6.246;2023-06-10T12:44:18;14.93;;;10.97;;
3573;SDS011;1801;51.050;6.246;2023-06-10T12:46:43;13.33;;;11.30;;
3573;SDS011;1801;51.050;6.246;2023-06-10T12:49:18;13.17;;;11.77;;
3573;SDS011;1801;51.050;6.246;2023-06-10T12:51:43;21.57;;;11.40;;
3573;SDS011;1801;51.050;6.246;2023-06-10T12:54:09;14.30;;;12.80;;
3573;SDS011;1801;51.050;6.246;2023-06-10T12:56:34;13.63;;;12.03;;
3573;SDS011;1801;51.050;6.246;2023-06-10T12:58:59;13.77;;;12.17;;
3573;SDS011;1801;51.050;6.246;2023-06-10T13:01:27;15.30;;;11.70;;
3573;SDS011;1801;51.050;6.246;2023-06-10T13:03:52;13.80;;;12.47;;
3573;SDS011;1801;51.050;6.246;2023-06-10T13:06:17;13.47;;;11.10;;
3573;SDS011;1801;51.050;6.246;2023-06-10T13:08:43;14.03;;;10.77;;
3573;SDS011;1801;51.050;6.246;2023-06-10T13:11:09;14.57;;;10.60;;
3573;SDS011;1801;51.050;6.246;2023-06-10T13:13:36;14.20;;;11.13;;
3573;SDS011;1801;51.050;6.246;2023-06-10T13:16:02;14.00;;;10.97;;
3573;SDS011;1801;51.050;6.246;2023-06-10T13:18:27;13.73;;;11.10;;
3573;SDS011;1801;51.050;6.246;2023-06-10T13:20:52;12.20;;;10.87;;
3573;SDS011;1801;51.050;6.246;2023-06-10T13:23:17;12.67;;;11.37;;
3573;SDS011;1801;51.050;6.246;2023-06-10T13:25:42;15.00;;;10.77;;
3573;SDS011;1801;51.050;6.246;2023-06-10T13:28:09;14.60;;;12.53;;
3573;SDS011;1801;51.050;6.246;2023-06-10T13:30:34;13.10;;;11.87;;
3573;SDS011;1801;51.050;6.246;2023-06-10T13:33:00;12.30;;;10.83;;
3573;SDS011;1801;51.050;6.246;2023-06-10T13:35:25;14.70;;;11.03;;
3573;SDS011;1801;51.050;6.246;2023-06-10T13:37:50;12.53;;;11.20;;
3573;SDS011;1801;51.050;6.246;2023-06-10T13:40:16;11.37;;;10.20;;
3573;SDS011;1801;51.050;6.246;2023-06-10T13:42:44;18.60;;;11.20;;
3573;SDS011;1801;51.050;6.246;2023-06-10T13:45:10;16.80;;;11.13;;
3573;SDS011;1801;51.050;6.246;2023-06-10T13:47:35;12.23;;;10.60;;
3573;SDS011;1801;51.050;6.246;2023-06-10T13:50:00;13.37;;;11.93;;
3573;SDS011;1801;51.050;6.246;2023-06-10T13:52:25;11.53;;;10.10;;
3573;SDS011;1801;51.050;6.246;2023-06-10T13:54:51;12.73;;;10.30;;
3573;SDS011;1801;51.050;6.246;2023-06-10T13:57:17;10.90;;;9.90;;
3573;SDS011;1801;51.050;6.246;2023-06-10T13:59:42;12.23;;;10.23;;
3573;SDS011;1801;51.050;6.246;2023-06-10T14:02:08;15.63;;;10.63;;
3573;SDS011;1801;51.050;6.246;2023-06-10T14:04:34;13.03;;;10.70;;
3573;SDS011;1801;51.050;6.246;2023-06-10T14:06:59;15.30;;;10.10;;
3573;SDS011;1801;51.050;6.246;2023-06-10T14:09:24;13.87;;;10.30;;
3573;SDS011;1801;51.050;6.246;2023-06-10T14:11:49;12.73;;;10.00;;
3573;SDS011;1801;51.050;6.246;2023-06-10T14:14:14;11.53;;;10.33;;
3573;SDS011;1801;51.050;6.246;2023-06-10T14:16:40;12.97;;;9.10;;
3573;SDS011;1801;51.050;6.246;2023-06-10T14:19:05;10.53;;;9.43;;
3573;SDS011;1801;51.050;6.246;2023-06-10T14:21:30;14.03;;;10.67;;
3573;SDS011;1801;51.050;6.246;2023-06-10T14:23:55;11.47;;;9.53;;
3573;SDS011;1801;51.050;6.246;2023-06-10T14:26:20;12.60;;;10.20;;
3573;SDS011;1801;51.050;6.246;2023-06-10T14:28:47;10.43;;;9.43;;
3573;SDS011;1801;51.050;6.246;2023-06-10T14:31:12;16.10;;;10.83;;
3573;SDS011;1801;51.050;6.246;2023-06-10T14:33:37;12.27;;;10.03;;
3573;SDS011;1801;51.050;6.246;2023-06-10T14:36:02;10.90;;;9.17;;
3573;SDS011;1801;51.050;6.246;2023-06-10T14:38:28;11.13;;;10.03;;
3573;SDS011;1801;51.050;6.246;2023-06-10T14:40:53;10.77;;;9.53;;
3573;SDS011;1801;51.050;6.246;2023-06-10T14:43:18;11.30;;;10.10;;
3573;SDS011;1801;51.050;6.246;2023-06-10T14:45:43;10.87;;;9.90;;
3573;SDS011;1801;51.050;6.246;2023-06-10T14:48:10;11.07;;;9.97;;
3573;SDS011;1801;51.050;6.246;2023-06-10T14:50:35;10.40;;;9.27;;
3573;SDS011;1801;51.050;6.246;2023-06-10T14:53:01;13.10;;;9.93;;
3573;SDS011;1801;51.050;6.246;2023-06-10T14:55:26;14.60;;;9.53;;